sensor_id;sensor_type;location;lat;lon;timestamp;P1;durP1;ratioP1;P2;durP2;ratioP2
36377;SDS011;22402;42.746;23.606;2022-07-29T00:01:49;12.63;;;9.50;;
36377;SDS011;22402;42.746;23.606;2022-07-29T00:04:15;16.03;;;9.53;;
36377;SDS011;22402;42.746;23.606;2022-07-29T00:06:40;11.73;;;10.53;;
36377;SDS011;22402;42.746;23.606;2022-07-29T00:09:06;11.13;;;8.70;;
36377;SDS011;22402;42.746;23.606;2022-07-29T00:11:31;10.07;;;8.97;;
36377;SDS011;22402;42.746;23.606;2022-07-29T00:13:57;20.53;;;9.57;;
36377;SDS011;22402;42.746;23.606;2022-07-29T00:16:22;12.97;;;8.67;;
36377;SDS011;22402;42.746;23.606;2022-07-29T00:18:48;9.70;;;8.13;;
36377;SDS011;22402;42.746;23.606;2022-07-29T00:21:13;12.27;;;9.23;;
36377;SDS011;22402;42.746;23.606;2022-07-29T00:23:38;11.33;;;7.80;;
36377;SDS011;22402;42.746;23.606;2022-07-29T00:26:04;9.70;;;8.27;;
36377;SDS011;22402;42.746;23.606;2022-07-29T00:28:29;16.63;;;8.30;;
36377;SDS011;22402;42.746;23.606;2022-07-29T00:30:55;11.53;;;8.50;;
36377;SDS011;22402;42.746;23.606;2022-07-29T00:33:20;13.00;;;9.53;;
36377;SDS011;22402;42.746;23.606;2022-07-29T00:35:45;20.03;;;10.47;;
36377;SDS011;22402;42.746;23.606;2022-07-29T00:38:14;15.83;;;8.90;;
36377;SDS011;22402;42.746;23.606;2022-07-29T00:40:41;9.93;;;8.53;;
36377;SDS011;22402;42.746;23.606;2022-07-29T00:43:07;9.80;;;8.80;;
36377;SDS011;22402;42.746;23.606;2022-07-29T00:45:33;11.10;;;8.87;;
36377;SDS011;22402;42.746;23.606;2022-07-29T00:47:58;11.00;;;9.27;;
36377;SDS011;22402;42.746;23.606;2022-07-29T00:50:24;12.83;;;8.67;;
36377;SDS011;22402;42.746;23.606;2022-07-29T00:52:49;11.97;;;7.53;;
36377;SDS011;22402;42.746;23.606;2022-07-29T00:55:16;15.00;;;8.57;;
36377;SDS011;22402;42.746;23.606;2022-07-29T00:57:42;10.97;;;7.93;;
36377;SDS011;22402;42.746;23.606;2022-07-29T01:00:10;8.97;;;7.50;;
36377;SDS011;22402;42.746;23.606;2022-07-29T01:02:38;11.50;;;7.77;;
36377;SDS011;22402;42.746;23.606;2022-07-29T01:05:04;15.77;;;7.57;;
36377;SDS011;22402;42.746;23.606;2022-07-29T01:07:30;9.97;;;8.30;;
36377;SDS011;22402;42.746;23.606;2022-07-29T01:09:58;12.80;;;7.33;;
36377;SDS011;22402;42.746;23.606;2022-07-29T01:12:25;7.20;;;6.50;;
36377;SDS011;22402;42.746;23.606;2022-07-29T01:14:52;19.03;;;7.60;;
36377;SDS011;22402;42.746;23.606;2022-07-29T01:31:11;8.20;;;6.70;;
36377;SDS011;22402;42.746;23.606;2022-07-29T01:33:43;9.00;;;7.67;;
36377;SDS011;22402;42.746;23.606;2022-07-29T01:36:17;10.17;;;7.73;;
36377;SDS011;22402;42.746;23.606;2022-07-29T01:38:49;7.93;;;6.07;;
36377;SDS011;22402;42.746;23.606;2022-07-29T01:41:26;13.67;;;7.27;;
36377;SDS011;22402;42.746;23.606;2022-07-29T01:43:57;8.77;;;6.10;;
36377;SDS011;22402;42.746;23.606;2022-07-29T01:46:33;9.90;;;7.93;;
36377;SDS011;22402;42.746;23.606;2022-07-29T01:49:06;10.10;;;7.60;;
36377;SDS011;22402;42.746;23.606;2022-07-29T01:51:40;9.33;;;6.90;;
36377;SDS011;22402;42.746;23.606;2022-07-29T01:56:45;9.43;;;7.23;;
36377;SDS011;22402;42.746;23.606;2022-07-29T01:59:13;9.33;;;7.03;;
36377;SDS011;22402;42.746;23.606;2022-07-29T02:01:41;20.83;;;8.50;;
36377;SDS011;22402;42.746;23.606;2022-07-29T02:04:09;13.47;;;6.83;;
36377;SDS011;22402;42.746;23.606;2022-07-29T02:06:37;10.77;;;7.47;;
36377;SDS011;22402;42.746;23.606;2022-07-29T02:09:03;6.97;;;6.27;;
36377;SDS011;22402;42.746;23.606;2022-07-29T02:11:31;10.90;;;7.67;;
36377;SDS011;22402;42.746;23.606;2022-07-29T02:13:59;10.13;;;7.20;;
36377;SDS011;22402;42.746;23.606;2022-07-29T02:16:25;7.20;;;6.50;;
36377;SDS011;22402;42.746;23.606;2022-07-29T02:18:53;8.90;;;6.80;;
36377;SDS011;22402;42.746;23.606;2022-07-29T02:21:21;7.70;;;6.90;;
36377;SDS011;22402;42.746;23.606;2022-07-29T02:23:49;15.13;;;7.13;;
36377;SDS011;22402;42.746;23.606;2022-07-29T02:26:18;9.20;;;6.70;;
36377;SDS011;22402;42.746;23.606;2022-07-29T02:28:45;8.63;;;7.10;;
36377;SDS011;22402;42.746;23.606;2022-07-29T02:31:12;8.87;;;6.63;;
36377;SDS011;22402;42.746;23.606;2022-07-29T02:33:39;16.10;;;7.37;;
36377;SDS011;22402;42.746;23.606;2022-07-29T02:36:06;8.43;;;6.80;;
36377;SDS011;22402;42.746;23.606;2022-07-29T02:38:32;7.93;;;6.50;;
36377;SDS011;22402;42.746;23.606;2022-07-29T02:41:01;12.17;;;6.10;;
36377;SDS011;22402;42.746;23.606;2022-07-29T02:43:30;8.47;;;6.87;;
36377;SDS011;22402;42.746;23.606;2022-07-29T02:45:58;7.50;;;6.67;;
36377;SDS011;22402;42.746;23.606;2022-07-29T02:49:06;13.13;;;5.90;;
36377;SDS011;22402;42.746;23.606;2022-07-29T02:51:41;7.50;;;5.70;;
36377;SDS011;22402;42.746;23.606;2022-07-29T02:54:10;8.97;;;5.93;;
36377;SDS011;22402;42.746;23.606;2022-07-29T02:56:39;9.60;;;5.87;;
36377;SDS011;22402;42.746;23.606;2022-07-29T02:59:09;9.20;;;6.23;;
36377;SDS011;22402;42.746;23.606;2022-07-29T03:01:36;14.43;;;7.10;;
36377;SDS011;22402;42.746;23.606;2022-07-29T03:04:04;10.97;;;5.80;;
36377;SDS011;22402;42.746;23.606;2022-07-29T03:06:30;6.00;;;5.40;;
36377;SDS011;22402;42.746;23.606;2022-07-29T03:08:58;7.17;;;6.43;;
36377;SDS011;22402;42.746;23.606;2022-07-29T03:11:24;7.97;;;5.87;;
36377;SDS011;22402;42.746;23.606;2022-07-29T03:13:51;16.10;;;6.30;;
36377;SDS011;22402;42.746;23.606;2022-07-29T03:16:18;12.37;;;6.23;;
36377;SDS011;22402;42.746;23.606;2022-07-29T03:18:44;9.07;;;6.10;;
36377;SDS011;22402;42.746;23.606;2022-07-29T03:21:11;6.53;;;5.57;;
36377;SDS011;22402;42.746;23.606;2022-07-29T03:23:36;8.57;;;5.70;;
36377;SDS011;22402;42.746;23.606;2022-07-29T03:26:01;9.27;;;6.23;;
36377;SDS011;22402;42.746;23.606;2022-07-29T03:28:27;9.27;;;5.93;;
36377;SDS011;22402;42.746;23.606;2022-07-29T03:30:52;9.67;;;5.73;;
36377;SDS011;22402;42.746;23.606;2022-07-29T03:33:18;7.17;;;5.80;;
36377;SDS011;22402;42.746;23.606;2022-07-29T03:35:44;8.00;;;5.77;;
36377;SDS011;22402;42.746;23.606;2022-07-29T03:38:09;7.57;;;5.17;;
36377;SDS011;22402;42.746;23.606;2022-07-29T03:40:40;5.57;;;4.77;;
36377;SDS011;22402;42.746;23.606;2022-07-29T03:43:11;8.73;;;5.80;;
36377;SDS011;22402;42.746;23.606;2022-07-29T03:45:41;5.70;;;4.20;;
36377;SDS011;22402;42.746;23.606;2022-07-29T03:48:12;14.10;;;6.13;;
36377;SDS011;22402;42.746;23.606;2022-07-29T03:50:40;7.53;;;5.50;;
36377;SDS011;22402;42.746;23.606;2022-07-29T03:53:05;8.67;;;5.83;;
36377;SDS011;22402;42.746;23.606;2022-07-29T03:55:32;7.10;;;5.40;;
36377;SDS011;22402;42.746;23.606;2022-07-29T03:58:06;14.47;;;6.60;;
36377;SDS011;22402;42.746;23.606;2022-07-29T04:00:32;11.03;;;6.20;;
36377;SDS011;22402;42.746;23.606;2022-07-29T04:02:59;8.00;;;5.10;;
36377;SDS011;22402;42.746;23.606;2022-07-29T04:05:24;5.50;;;5.00;;
36377;SDS011;22402;42.746;23.606;2022-07-29T04:07:50;7.30;;;5.60;;
36377;SDS011;22402;42.746;23.606;2022-07-29T04:10:15;8.20;;;4.97;;
36377;SDS011;22402;42.746;23.606;2022-07-29T04:12:41;9.30;;;4.00;;
36377;SDS011;22402;42.746;23.606;2022-07-29T04:15:07;6.60;;;5.47;;
36377;SDS011;22402;42.746;23.606;2022-07-29T04:17:33;4.57;;;4.17;;
36377;SDS011;22402;42.746;23.606;2022-07-29T04:19:59;4.43;;;4.03;;
36377;SDS011;22402;42.746;23.606;2022-07-29T04:22:24;5.80;;;4.63;;
36377;SDS011;22402;42.746;23.606;2022-07-29T04:24:49;10.73;;;4.70;;
36377;SDS011;22402;42.746;23.606;2022-07-29T04:27:15;7.43;;;4.27;;
36377;SDS011;22402;42.746;23.606;2022-07-29T04:29:40;5.27;;;4.03;;
36377;SDS011;22402;42.746;23.606;2022-07-29T04:32:06;5.80;;;4.57;;
36377;SDS011;22402;42.746;23.606;2022-07-29T04:34:31;6.20;;;4.63;;
36377;SDS011;22402;42.746;23.606;2022-07-29T04:36:57;6.87;;;4.03;;
36377;SDS011;22402;42.746;23.606;2022-07-29T04:39:23;8.20;;;4.60;;
36377;SDS011;22402;42.746;23.606;2022-07-29T04:41:49;6.10;;;4.13;;
36377;SDS011;22402;42.746;23.606;2022-07-29T04:44:15;8.43;;;4.53;;
36377;SDS011;22402;42.746;23.606;2022-07-29T04:46:40;6.87;;;4.87;;
36377;SDS011;22402;42.746;23.606;2022-07-29T04:49:05;11.17;;;4.13;;
36377;SDS011;22402;42.746;23.606;2022-07-29T04:51:31;10.90;;;4.70;;
36377;SDS011;22402;42.746;23.606;2022-07-29T04:53:56;6.57;;;5.07;;
36377;SDS011;22402;42.746;23.606;2022-07-29T04:56:21;6.10;;;4.50;;
36377;SDS011;22402;42.746;23.606;2022-07-29T04:58:47;4.50;;;3.90;;
36377;SDS011;22402;42.746;23.606;2022-07-29T05:01:12;7.70;;;4.90;;
36377;SDS011;22402;42.746;23.606;2022-07-29T05:03:38;9.63;;;4.37;;
36377;SDS011;22402;42.746;23.606;2022-07-29T05:06:04;4.87;;;3.90;;
36377;SDS011;22402;42.746;23.606;2022-07-29T05:08:29;3.93;;;3.13;;
36377;SDS011;22402;42.746;23.606;2022-07-29T05:10:55;6.10;;;3.77;;
36377;SDS011;22402;42.746;23.606;2022-07-29T05:13:20;10.33;;;3.77;;
36377;SDS011;22402;42.746;23.606;2022-07-29T05:15:45;12.23;;;3.47;;
36377;SDS011;22402;42.746;23.606;2022-07-29T05:18:11;4.50;;;3.30;;
36377;SDS011;22402;42.746;23.606;2022-07-29T05:20:36;7.40;;;3.40;;
36377;SDS011;22402;42.746;23.606;2022-07-29T05:23:02;3.60;;;3.30;;
36377;SDS011;22402;42.746;23.606;2022-07-29T05:25:27;7.07;;;3.23;;
36377;SDS011;22402;42.746;23.606;2022-07-29T05:27:53;5.13;;;3.80;;
36377;SDS011;22402;42.746;23.606;2022-07-29T05:30:19;9.17;;;4.13;;
36377;SDS011;22402;42.746;23.606;2022-07-29T05:32:45;4.00;;;3.60;;
36377;SDS011;22402;42.746;23.606;2022-07-29T05:35:11;5.80;;;3.23;;
36377;SDS011;22402;42.746;23.606;2022-07-29T05:37:36;7.20;;;3.40;;
36377;SDS011;22402;42.746;23.606;2022-07-29T05:40:02;8.27;;;4.57;;
36377;SDS011;22402;42.746;23.606;2022-07-29T05:42:28;6.93;;;4.20;;
36377;SDS011;22402;42.746;23.606;2022-07-29T05:44:53;7.40;;;3.80;;
36377;SDS011;22402;42.746;23.606;2022-07-29T05:47:19;7.90;;;3.80;;
36377;SDS011;22402;42.746;23.606;2022-07-29T05:49:44;8.83;;;4.50;;
36377;SDS011;22402;42.746;23.606;2022-07-29T05:52:10;5.23;;;4.10;;
36377;SDS011;22402;42.746;23.606;2022-07-29T05:54:35;7.43;;;3.43;;
36377;SDS011;22402;42.746;23.606;2022-07-29T05:57:01;6.20;;;4.00;;
36377;SDS011;22402;42.746;23.606;2022-07-29T05:59:28;8.30;;;3.70;;
36377;SDS011;22402;42.746;23.606;2022-07-29T06:01:53;10.43;;;3.67;;
36377;SDS011;22402;42.746;23.606;2022-07-29T06:04:18;4.53;;;3.80;;
36377;SDS011;22402;42.746;23.606;2022-07-29T06:06:44;8.90;;;3.33;;
36377;SDS011;22402;42.746;23.606;2022-07-29T06:09:09;3.93;;;3.17;;
36377;SDS011;22402;42.746;23.606;2022-07-29T06:11:34;7.30;;;3.70;;
36377;SDS011;22402;42.746;23.606;2022-07-29T06:14:00;4.53;;;4.10;;
36377;SDS011;22402;42.746;23.606;2022-07-29T06:16:25;8.50;;;3.83;;
36377;SDS011;22402;42.746;23.606;2022-07-29T06:18:50;6.83;;;3.80;;
36377;SDS011;22402;42.746;23.606;2022-07-29T06:21:16;6.60;;;3.30;;
36377;SDS011;22402;42.746;23.606;2022-07-29T06:23:41;5.97;;;3.50;;
36377;SDS011;22402;42.746;23.606;2022-07-29T06:26:06;8.63;;;3.80;;
36377;SDS011;22402;42.746;23.606;2022-07-29T06:28:32;3.30;;;2.90;;
36377;SDS011;22402;42.746;23.606;2022-07-29T06:30:58;3.43;;;2.90;;
36377;SDS011;22402;42.746;23.606;2022-07-29T06:33:24;4.43;;;3.50;;
36377;SDS011;22402;42.746;23.606;2022-07-29T06:35:49;5.70;;;4.03;;
36377;SDS011;22402;42.746;23.606;2022-07-29T06:38:15;4.47;;;3.40;;
36377;SDS011;22402;42.746;23.606;2022-07-29T06:40:41;5.30;;;4.03;;
36377;SDS011;22402;42.746;23.606;2022-07-29T06:43:09;5.63;;;3.30;;
36377;SDS011;22402;42.746;23.606;2022-07-29T06:45:34;3.97;;;3.57;;
36377;SDS011;22402;42.746;23.606;2022-07-29T06:48:00;8.37;;;4.00;;
36377;SDS011;22402;42.746;23.606;2022-07-29T06:50:25;7.17;;;4.10;;
36377;SDS011;22402;42.746;23.606;2022-07-29T06:52:50;9.73;;;3.30;;
36377;SDS011;22402;42.746;23.606;2022-07-29T06:55:16;5.67;;;3.93;;
36377;SDS011;22402;42.746;23.606;2022-07-29T06:57:41;11.93;;;4.57;;
36377;SDS011;22402;42.746;23.606;2022-07-29T07:00:07;9.60;;;4.23;;
36377;SDS011;22402;42.746;23.606;2022-07-29T07:02:33;9.50;;;4.17;;
36377;SDS011;22402;42.746;23.606;2022-07-29T07:04:58;5.30;;;3.03;;
36377;SDS011;22402;42.746;23.606;2022-07-29T07:07:24;4.30;;;3.70;;
36377;SDS011;22402;42.746;23.606;2022-07-29T07:09:50;5.73;;;3.77;;
36377;SDS011;22402;42.746;23.606;2022-07-29T07:12:15;7.63;;;3.00;;
36377;SDS011;22402;42.746;23.606;2022-07-29T07:14:41;6.07;;;4.00;;
36377;SDS011;22402;42.746;23.606;2022-07-29T07:17:06;10.27;;;3.23;;
36377;SDS011;22402;42.746;23.606;2022-07-29T07:19:31;11.63;;;3.67;;
36377;SDS011;22402;42.746;23.606;2022-07-29T07:21:57;4.80;;;3.47;;
36377;SDS011;22402;42.746;23.606;2022-07-29T07:24:22;6.33;;;3.20;;
36377;SDS011;22402;42.746;23.606;2022-07-29T07:26:48;14.60;;;4.13;;
36377;SDS011;22402;42.746;23.606;2022-07-29T07:29:13;3.30;;;3.00;;
36377;SDS011;22402;42.746;23.606;2022-07-29T07:31:38;5.60;;;3.40;;
36377;SDS011;22402;42.746;23.606;2022-07-29T07:34:04;5.97;;;3.50;;
36377;SDS011;22402;42.746;23.606;2022-07-29T07:36:29;5.93;;;3.60;;
36377;SDS011;22402;42.746;23.606;2022-07-29T07:38:55;5.33;;;3.50;;
36377;SDS011;22402;42.746;23.606;2022-07-29T07:41:20;7.73;;;4.33;;
36377;SDS011;22402;42.746;23.606;2022-07-29T07:43:46;4.83;;;3.80;;
36377;SDS011;22402;42.746;23.606;2022-07-29T07:46:12;8.30;;;3.40;;
36377;SDS011;22402;42.746;23.606;2022-07-29T07:48:37;6.87;;;3.20;;
36377;SDS011;22402;42.746;23.606;2022-07-29T07:51:03;11.90;;;3.87;;
36377;SDS011;22402;42.746;23.606;2022-07-29T07:53:28;8.13;;;4.80;;
36377;SDS011;22402;42.746;23.606;2022-07-29T07:55:53;10.77;;;4.57;;
36377;SDS011;22402;42.746;23.606;2022-07-29T07:58:19;10.37;;;4.50;;
36377;SDS011;22402;42.746;23.606;2022-07-29T08:00:44;13.23;;;3.90;;
36377;SDS011;22402;42.746;23.606;2022-07-29T08:03:09;7.40;;;4.37;;
36377;SDS011;22402;42.746;23.606;2022-07-29T08:05:35;7.70;;;4.27;;
36377;SDS011;22402;42.746;23.606;2022-07-29T08:08:00;5.83;;;3.57;;
36377;SDS011;22402;42.746;23.606;2022-07-29T08:10:25;7.30;;;4.83;;
36377;SDS011;22402;42.746;23.606;2022-07-29T08:12:51;10.03;;;3.83;;
36377;SDS011;22402;42.746;23.606;2022-07-29T08:15:16;6.37;;;3.40;;
36377;SDS011;22402;42.746;23.606;2022-07-29T08:17:42;6.27;;;4.07;;
36377;SDS011;22402;42.746;23.606;2022-07-29T08:20:07;5.43;;;2.50;;
36377;SDS011;22402;42.746;23.606;2022-07-29T08:22:33;5.67;;;3.13;;
36377;SDS011;22402;42.746;23.606;2022-07-29T08:24:58;3.80;;;3.07;;
36377;SDS011;22402;42.746;23.606;2022-07-29T08:27:23;6.10;;;3.83;;
36377;SDS011;22402;42.746;23.606;2022-07-29T08:29:49;4.20;;;3.33;;
36377;SDS011;22402;42.746;23.606;2022-07-29T08:32:14;6.10;;;3.23;;
36377;SDS011;22402;42.746;23.606;2022-07-29T08:34:40;5.53;;;3.63;;
36377;SDS011;22402;42.746;23.606;2022-07-29T08:37:05;17.73;;;4.47;;
36377;SDS011;22402;42.746;23.606;2022-07-29T08:39:30;6.80;;;3.47;;
36377;SDS011;22402;42.746;23.606;2022-07-29T08:41:56;7.20;;;3.80;;
36377;SDS011;22402;42.746;23.606;2022-07-29T08:44:21;6.00;;;3.10;;
36377;SDS011;22402;42.746;23.606;2022-07-29T08:46:47;4.43;;;3.00;;
36377;SDS011;22402;42.746;23.606;2022-07-29T08:49:13;12.80;;;3.23;;
36377;SDS011;22402;42.746;23.606;2022-07-29T08:51:39;5.00;;;3.37;;
36377;SDS011;22402;42.746;23.606;2022-07-29T08:54:05;7.43;;;3.20;;
36377;SDS011;22402;42.746;23.606;2022-07-29T08:56:33;4.00;;;3.10;;
36377;SDS011;22402;42.746;23.606;2022-07-29T08:58:59;5.57;;;3.63;;
36377;SDS011;22402;42.746;23.606;2022-07-29T09:01:29;8.63;;;3.20;;
36377;SDS011;22402;42.746;23.606;2022-07-29T09:03:55;5.60;;;3.50;;
36377;SDS011;22402;42.746;23.606;2022-07-29T09:06:21;12.63;;;3.30;;
36377;SDS011;22402;42.746;23.606;2022-07-29T09:08:48;5.37;;;3.03;;
36377;SDS011;22402;42.746;23.606;2022-07-29T09:11:14;4.80;;;2.80;;
36377;SDS011;22402;42.746;23.606;2022-07-29T09:13:40;9.00;;;3.10;;
36377;SDS011;22402;42.746;23.606;2022-07-29T09:16:06;5.70;;;2.80;;
36377;SDS011;22402;42.746;23.606;2022-07-29T09:21:06;4.67;;;2.90;;
36377;SDS011;22402;42.746;23.606;2022-07-29T09:23:32;4.50;;;3.17;;
36377;SDS011;22402;42.746;23.606;2022-07-29T09:25:57;4.00;;;3.50;;
36377;SDS011;22402;42.746;23.606;2022-07-29T09:28:30;4.40;;;3.00;;
36377;SDS011;22402;42.746;23.606;2022-07-29T09:30:56;8.83;;;3.53;;
36377;SDS011;22402;42.746;23.606;2022-07-29T09:33:23;14.47;;;3.77;;
36377;SDS011;22402;42.746;23.606;2022-07-29T09:35:59;5.80;;;3.23;;
36377;SDS011;22402;42.746;23.606;2022-07-29T09:38:35;7.47;;;3.60;;
36377;SDS011;22402;42.746;23.606;2022-07-29T09:41:01;3.77;;;2.60;;
36377;SDS011;22402;42.746;23.606;2022-07-29T09:43:28;4.20;;;2.97;;
36377;SDS011;22402;42.746;23.606;2022-07-29T09:45:54;5.43;;;3.90;;
36377;SDS011;22402;42.746;23.606;2022-07-29T09:48:20;3.70;;;2.97;;
36377;SDS011;22402;42.746;23.606;2022-07-29T09:50:47;4.73;;;3.50;;
36377;SDS011;22402;42.746;23.606;2022-07-29T09:53:35;4.00;;;2.50;;
36377;SDS011;22402;42.746;23.606;2022-07-29T09:56:00;4.63;;;3.73;;
36377;SDS011;22402;42.746;23.606;2022-07-29T09:58:26;4.20;;;3.03;;
36377;SDS011;22402;42.746;23.606;2022-07-29T10:00:52;11.00;;;5.00;;
36377;SDS011;22402;42.746;23.606;2022-07-29T10:03:19;4.17;;;3.27;;
36377;SDS011;22402;42.746;23.606;2022-07-29T10:05:45;6.30;;;3.50;;
36377;SDS011;22402;42.746;23.606;2022-07-29T10:08:28;7.33;;;3.60;;
36377;SDS011;22402;42.746;23.606;2022-07-29T10:11:02;6.63;;;4.10;;
36377;SDS011;22402;42.746;23.606;2022-07-29T10:13:42;4.40;;;3.20;;
36377;SDS011;22402;42.746;23.606;2022-07-29T10:16:09;3.80;;;2.80;;
36377;SDS011;22402;42.746;23.606;2022-07-29T10:18:35;5.17;;;3.00;;
36377;SDS011;22402;42.746;23.606;2022-07-29T10:21:03;9.13;;;4.33;;
36377;SDS011;22402;42.746;23.606;2022-07-29T10:23:29;5.03;;;3.20;;
36377;SDS011;22402;42.746;23.606;2022-07-29T10:25:55;7.10;;;4.50;;
36377;SDS011;22402;42.746;23.606;2022-07-29T10:28:21;5.03;;;3.17;;
36377;SDS011;22402;42.746;23.606;2022-07-29T10:30:46;4.07;;;2.90;;
36377;SDS011;22402;42.746;23.606;2022-07-29T10:39:05;8.10;;;3.60;;
36377;SDS011;22402;42.746;23.606;2022-07-29T10:44:18;4.73;;;3.17;;
36377;SDS011;22402;42.746;23.606;2022-07-29T10:46:46;5.83;;;3.47;;
36377;SDS011;22402;42.746;23.606;2022-07-29T10:49:12;3.03;;;2.73;;
36377;SDS011;22402;42.746;23.606;2022-07-29T10:54:18;8.50;;;3.13;;
36377;SDS011;22402;42.746;23.606;2022-07-29T11:07:23;3.97;;;3.47;;
36377;SDS011;22402;42.746;23.606;2022-07-29T11:15:05;4.37;;;3.70;;
36377;SDS011;22402;42.746;23.606;2022-07-29T11:31:38;10.63;;;3.40;;
36377;SDS011;22402;42.746;23.606;2022-07-29T11:34:21;4.70;;;3.50;;
36377;SDS011;22402;42.746;23.606;2022-07-29T11:39:33;5.53;;;3.80;;
36377;SDS011;22402;42.746;23.606;2022-07-29T11:42:48;9.53;;;3.40;;
36377;SDS011;22402;42.746;23.606;2022-07-29T11:47:47;4.83;;;4.17;;
36377;SDS011;22402;42.746;23.606;2022-07-29T11:50:16;13.23;;;4.50;;
36377;SDS011;22402;42.746;23.606;2022-07-29T11:52:51;4.23;;;3.07;;
36377;SDS011;22402;42.746;23.606;2022-07-29T11:55:17;7.00;;;4.30;;
36377;SDS011;22402;42.746;23.606;2022-07-29T11:57:54;8.20;;;4.17;;
36377;SDS011;22402;42.746;23.606;2022-07-29T12:00:23;5.33;;;3.70;;
36377;SDS011;22402;42.746;23.606;2022-07-29T12:03:25;5.80;;;3.20;;
36377;SDS011;22402;42.746;23.606;2022-07-29T12:05:52;7.73;;;4.50;;
36377;SDS011;22402;42.746;23.606;2022-07-29T12:08:19;7.23;;;3.40;;
36377;SDS011;22402;42.746;23.606;2022-07-29T12:10:46;3.80;;;3.10;;
36377;SDS011;22402;42.746;23.606;2022-07-29T12:13:13;5.87;;;4.03;;
36377;SDS011;22402;42.746;23.606;2022-07-29T12:15:40;4.20;;;3.47;;
36377;SDS011;22402;42.746;23.606;2022-07-29T12:18:10;7.67;;;3.23;;
36377;SDS011;22402;42.746;23.606;2022-07-29T12:20:44;5.87;;;3.70;;
36377;SDS011;22402;42.746;23.606;2022-07-29T12:23:11;4.10;;;3.10;;
36377;SDS011;22402;42.746;23.606;2022-07-29T12:25:36;7.50;;;4.13;;
36377;SDS011;22402;42.746;23.606;2022-07-29T12:28:05;14.10;;;5.43;;
36377;SDS011;22402;42.746;23.606;2022-07-29T12:30:36;4.33;;;3.77;;
36377;SDS011;22402;42.746;23.606;2022-07-29T12:35:48;6.60;;;4.63;;
36377;SDS011;22402;42.746;23.606;2022-07-29T12:38:16;5.13;;;4.03;;
36377;SDS011;22402;42.746;23.606;2022-07-29T12:40:43;8.43;;;4.10;;
36377;SDS011;22402;42.746;23.606;2022-07-29T12:43:09;6.00;;;3.47;;
36377;SDS011;22402;42.746;23.606;2022-07-29T12:45:44;9.10;;;4.00;;
36377;SDS011;22402;42.746;23.606;2022-07-29T12:48:12;3.50;;;3.03;;
36377;SDS011;22402;42.746;23.606;2022-07-29T12:50:57;9.00;;;4.10;;
36377;SDS011;22402;42.746;23.606;2022-07-29T12:53:24;4.90;;;4.00;;
36377;SDS011;22402;42.746;23.606;2022-07-29T12:55:50;8.73;;;4.57;;
36377;SDS011;22402;42.746;23.606;2022-07-29T12:58:27;5.93;;;4.57;;
36377;SDS011;22402;42.746;23.606;2022-07-29T13:01:00;7.47;;;4.20;;
36377;SDS011;22402;42.746;23.606;2022-07-29T13:09:04;79.43;;;10.13;;
36377;SDS011;22402;42.746;23.606;2022-07-29T13:11:30;149.40;;;17.10;;
36377;SDS011;22402;42.746;23.606;2022-07-29T13:14:00;96.27;;;12.50;;
36377;SDS011;22402;42.746;23.606;2022-07-29T13:16:25;121.63;;;14.57;;
36377;SDS011;22402;42.746;23.606;2022-07-29T13:19:07;127.40;;;15.87;;
36377;SDS011;22402;42.746;23.606;2022-07-29T13:21:34;166.43;;;19.33;;
36377;SDS011;22402;42.746;23.606;2022-07-29T13:24:00;153.70;;;17.67;;
36377;SDS011;22402;42.746;23.606;2022-07-29T13:26:26;107.67;;;12.67;;
36377;SDS011;22402;42.746;23.606;2022-07-29T13:28:51;104.43;;;12.57;;
36377;SDS011;22402;42.746;23.606;2022-07-29T13:31:17;79.20;;;10.33;;
36377;SDS011;22402;42.746;23.606;2022-07-29T13:33:42;106.33;;;13.03;;
36377;SDS011;22402;42.746;23.606;2022-07-29T13:36:08;122.20;;;13.97;;
36377;SDS011;22402;42.746;23.606;2022-07-29T13:38:33;68.50;;;10.00;;
36377;SDS011;22402;42.746;23.606;2022-07-29T13:40:59;115.67;;;13.83;;
36377;SDS011;22402;42.746;23.606;2022-07-29T13:43:25;101.47;;;12.20;;
36377;SDS011;22402;42.746;23.606;2022-07-29T13:45:51;79.33;;;10.80;;
36377;SDS011;22402;42.746;23.606;2022-07-29T13:48:16;138.30;;;16.70;;
36377;SDS011;22402;42.746;23.606;2022-07-29T13:50:41;79.60;;;10.03;;
36377;SDS011;22402;42.746;23.606;2022-07-29T13:53:07;63.73;;;8.77;;
36377;SDS011;22402;42.746;23.606;2022-07-29T13:55:32;91.20;;;11.20;;
36377;SDS011;22402;42.746;23.606;2022-07-29T13:57:58;75.73;;;9.63;;
36377;SDS011;22402;42.746;23.606;2022-07-29T14:00:23;76.83;;;9.83;;
36377;SDS011;22402;42.746;23.606;2022-07-29T14:02:49;108.77;;;13.37;;
36377;SDS011;22402;42.746;23.606;2022-07-29T14:05:14;145.80;;;17.60;;
36377;SDS011;22402;42.746;23.606;2022-07-29T14:07:39;104.23;;;13.63;;
36377;SDS011;22402;42.746;23.606;2022-07-29T14:10:05;53.63;;;8.80;;
36377;SDS011;22402;42.746;23.606;2022-07-29T14:12:31;15.27;;;3.93;;
36377;SDS011;22402;42.746;23.606;2022-07-29T14:14:57;10.40;;;3.20;;
36377;SDS011;22402;42.746;23.606;2022-07-29T14:17:24;17.30;;;3.57;;
36377;SDS011;22402;42.746;23.606;2022-07-29T14:19:52;7.20;;;2.67;;
36377;SDS011;22402;42.746;23.606;2022-07-29T14:22:18;21.33;;;4.07;;
36377;SDS011;22402;42.746;23.606;2022-07-29T14:24:44;7.90;;;3.30;;
36377;SDS011;22402;42.746;23.606;2022-07-29T14:27:10;14.47;;;3.60;;
36377;SDS011;22402;42.746;23.606;2022-07-29T14:29:36;7.60;;;3.20;;
36377;SDS011;22402;42.746;23.606;2022-07-29T14:32:02;14.27;;;2.87;;
36377;SDS011;22402;42.746;23.606;2022-07-29T14:34:28;14.23;;;3.80;;
36377;SDS011;22402;42.746;23.606;2022-07-29T14:36:53;16.90;;;3.73;;
36377;SDS011;22402;42.746;23.606;2022-07-29T14:39:18;26.23;;;5.30;;
36377;SDS011;22402;42.746;23.606;2022-07-29T14:41:44;4.83;;;2.17;;
36377;SDS011;22402;42.746;23.606;2022-07-29T14:44:09;18.93;;;4.30;;
36377;SDS011;22402;42.746;23.606;2022-07-29T14:46:35;12.20;;;3.33;;
36377;SDS011;22402;42.746;23.606;2022-07-29T14:49:00;13.40;;;5.30;;
36377;SDS011;22402;42.746;23.606;2022-07-29T14:51:26;18.80;;;4.33;;
36377;SDS011;22402;42.746;23.606;2022-07-29T14:53:51;9.87;;;3.10;;
36377;SDS011;22402;42.746;23.606;2022-07-29T14:56:17;6.03;;;2.70;;
36377;SDS011;22402;42.746;23.606;2022-07-29T14:58:42;4.30;;;2.90;;
36377;SDS011;22402;42.746;23.606;2022-07-29T15:01:07;15.90;;;4.60;;
36377;SDS011;22402;42.746;23.606;2022-07-29T15:03:33;12.73;;;2.67;;
36377;SDS011;22402;42.746;23.606;2022-07-29T15:06:00;4.93;;;3.07;;
36377;SDS011;22402;42.746;23.606;2022-07-29T15:08:25;14.83;;;4.70;;
36377;SDS011;22402;42.746;23.606;2022-07-29T15:10:51;6.13;;;3.07;;
36377;SDS011;22402;42.746;23.606;2022-07-29T15:13:17;9.60;;;3.50;;
36377;SDS011;22402;42.746;23.606;2022-07-29T15:15:42;332.93;;;299.93;;
36377;SDS011;22402;42.746;23.606;2022-07-29T15:18:08;264.00;;;237.13;;
36377;SDS011;22402;42.746;23.606;2022-07-29T15:20:33;12.53;;;4.70;;
36377;SDS011;22402;42.746;23.606;2022-07-29T15:22:59;11.77;;;3.83;;
36377;SDS011;22402;42.746;23.606;2022-07-29T15:25:24;21.80;;;5.00;;
36377;SDS011;22402;42.746;23.606;2022-07-29T15:27:53;7.57;;;3.20;;
36377;SDS011;22402;42.746;23.606;2022-07-29T15:30:18;12.93;;;4.00;;
36377;SDS011;22402;42.746;23.606;2022-07-29T15:32:47;21.13;;;4.97;;
36377;SDS011;22402;42.746;23.606;2022-07-29T15:35:12;11.33;;;3.50;;
36377;SDS011;22402;42.746;23.606;2022-07-29T15:37:37;12.90;;;4.37;;
36377;SDS011;22402;42.746;23.606;2022-07-29T15:40:04;13.90;;;4.77;;
36377;SDS011;22402;42.746;23.606;2022-07-29T15:42:30;12.63;;;3.73;;